sensor_id;sensor_type;location;lat;lon;timestamp;P1;durP1;ratioP1;P2;durP2;ratioP2
42670;SDS011;28283;55.426;37.756;2022-10-13T00:03:22;12.30;;;8.43;;
42670;SDS011;28283;55.426;37.756;2022-10-13T00:08:23;14.90;;;7.03;;
42670;SDS011;28283;55.426;37.756;2022-10-13T00:13:25;11.32;;;6.57;;
42670;SDS011;28283;55.426;37.756;2022-10-13T00:18:26;13.77;;;7.13;;
42670;SDS011;28283;55.426;37.756;2022-10-13T00:23:27;13.63;;;7.75;;
42670;SDS011;28283;55.426;37.756;2022-10-13T00:28:28;12.02;;;6.57;;
42670;SDS011;28283;55.426;37.756;2022-10-13T00:33:28;9.13;;;6.60;;
42670;SDS011;28283;55.426;37.756;2022-10-13T00:38:29;14.70;;;8.20;;
42670;SDS011;28283;55.426;37.756;2022-10-13T00:43:46;11.33;;;7.50;;
42670;SDS011;28283;55.426;37.756;2022-10-13T00:48:54;16.83;;;5.65;;
42670;SDS011;28283;55.426;37.756;2022-10-13T00:54:00;10.00;;;6.07;;
42670;SDS011;28283;55.426;37.756;2022-10-13T00:59:03;14.68;;;6.68;;
42670;SDS011;28283;55.426;37.756;2022-10-13T01:04:12;11.38;;;6.57;;
42670;SDS011;28283;55.426;37.756;2022-10-13T01:30:10;11.68;;;5.88;;
42670;SDS011;28283;55.426;37.756;2022-10-13T01:40:17;12.40;;;6.33;;
42670;SDS011;28283;55.426;37.756;2022-10-13T01:45:24;10.63;;;5.47;;
42670;SDS011;28283;55.426;37.756;2022-10-13T01:50:29;12.88;;;6.00;;
42670;SDS011;28283;55.426;37.756;2022-10-13T01:55:31;12.18;;;5.50;;
42670;SDS011;28283;55.426;37.756;2022-10-13T02:00:33;9.38;;;6.45;;
42670;SDS011;28283;55.426;37.756;2022-10-13T02:11:29;11.38;;;5.30;;
42670;SDS011;28283;55.426;37.756;2022-10-13T02:16:34;12.77;;;5.45;;
42670;SDS011;28283;55.426;37.756;2022-10-13T02:21:39;6.50;;;3.72;;
42670;SDS011;28283;55.426;37.756;2022-10-13T02:31:41;10.13;;;4.90;;
42670;SDS011;28283;55.426;37.756;2022-10-13T02:36:44;12.30;;;5.30;;
42670;SDS011;28283;55.426;37.756;2022-10-13T02:41:45;8.07;;;4.90;;
42670;SDS011;28283;55.426;37.756;2022-10-13T02:46:46;9.77;;;4.95;;
42670;SDS011;28283;55.426;37.756;2022-10-13T02:51:47;9.03;;;5.00;;
42670;SDS011;28283;55.426;37.756;2022-10-13T02:56:48;9.25;;;4.90;;
42670;SDS011;28283;55.426;37.756;2022-10-13T03:01:49;8.63;;;5.15;;
42670;SDS011;28283;55.426;37.756;2022-10-13T03:06:50;13.05;;;5.18;;
42670;SDS011;28283;55.426;37.756;2022-10-13T03:11:51;7.77;;;4.37;;
42670;SDS011;28283;55.426;37.756;2022-10-13T03:16:52;11.63;;;5.93;;
42670;SDS011;28283;55.426;37.756;2022-10-13T03:21:53;8.75;;;4.20;;
42670;SDS011;28283;55.426;37.756;2022-10-13T03:26:54;10.68;;;5.35;;
42670;SDS011;28283;55.426;37.756;2022-10-13T03:31:55;9.60;;;4.93;;
42670;SDS011;28283;55.426;37.756;2022-10-13T03:36:55;9.23;;;5.22;;
42670;SDS011;28283;55.426;37.756;2022-10-13T03:41:57;8.60;;;4.10;;
42670;SDS011;28283;55.426;37.756;2022-10-13T03:46:57;7.80;;;4.10;;
42670;SDS011;28283;55.426;37.756;2022-10-13T03:51:58;5.97;;;3.93;;
42670;SDS011;28283;55.426;37.756;2022-10-13T03:56:59;5.18;;;4.10;;
42670;SDS011;28283;55.426;37.756;2022-10-13T04:02:00;8.27;;;4.32;;
42670;SDS011;28283;55.426;37.756;2022-10-13T04:12:02;8.25;;;4.25;;
42670;SDS011;28283;55.426;37.756;2022-10-13T04:17:03;4.55;;;3.85;;
42670;SDS011;28283;55.426;37.756;2022-10-13T04:22:04;4.22;;;3.05;;
42670;SDS011;28283;55.426;37.756;2022-10-13T04:27:04;7.28;;;4.55;;
42670;SDS011;28283;55.426;37.756;2022-10-13T04:32:05;9.97;;;4.57;;
42670;SDS011;28283;55.426;37.756;2022-10-13T04:37:06;7.15;;;4.22;;
42670;SDS011;28283;55.426;37.756;2022-10-13T04:42:07;8.67;;;5.53;;
42670;SDS011;28283;55.426;37.756;2022-10-13T04:47:07;6.17;;;4.80;;
42670;SDS011;28283;55.426;37.756;2022-10-13T04:52:08;7.18;;;3.90;;
42670;SDS011;28283;55.426;37.756;2022-10-13T04:57:09;12.13;;;4.53;;
42670;SDS011;28283;55.426;37.756;2022-10-13T05:02:10;14.73;;;6.28;;
42670;SDS011;28283;55.426;37.756;2022-10-13T05:12:11;8.47;;;4.08;;
42670;SDS011;28283;55.426;37.756;2022-10-13T05:17:12;12.47;;;5.70;;
42670;SDS011;28283;55.426;37.756;2022-10-13T05:22:13;7.63;;;5.57;;
42670;SDS011;28283;55.426;37.756;2022-10-13T05:27:13;8.13;;;5.40;;
42670;SDS011;28283;55.426;37.756;2022-10-13T05:32:14;10.33;;;5.80;;
42670;SDS011;28283;55.426;37.756;2022-10-13T05:37:15;17.50;;;6.32;;
42670;SDS011;28283;55.426;37.756;2022-10-13T05:42:23;14.90;;;6.75;;
42670;SDS011;28283;55.426;37.756;2022-10-13T05:47:23;17.42;;;7.20;;
42670;SDS011;28283;55.426;37.756;2022-10-13T05:52:27;14.13;;;8.10;;
42670;SDS011;28283;55.426;37.756;2022-10-13T06:02:32;21.33;;;9.60;;
42670;SDS011;28283;55.426;37.756;2022-10-13T06:07:37;6.70;;;4.15;;
42670;SDS011;28283;55.426;37.756;2022-10-13T06:12:38;8.60;;;4.50;;
42670;SDS011;28283;55.426;37.756;2022-10-13T06:17:42;20.77;;;12.20;;
42670;SDS011;28283;55.426;37.756;2022-10-13T06:22:42;22.90;;;13.82;;
42670;SDS011;28283;55.426;37.756;2022-10-13T06:27:43;23.20;;;17.00;;
42670;SDS011;28283;55.426;37.756;2022-10-13T06:32:44;18.50;;;14.00;;
42670;SDS011;28283;55.426;37.756;2022-10-13T06:37:44;19.73;;;12.67;;
42670;SDS011;28283;55.426;37.756;2022-10-13T06:42:48;15.55;;;12.10;;
42670;SDS011;28283;55.426;37.756;2022-10-13T06:47:51;23.73;;;18.73;;
42670;SDS011;28283;55.426;37.756;2022-10-13T06:52:54;32.45;;;22.40;;
42670;SDS011;28283;55.426;37.756;2022-10-13T06:57:55;34.58;;;22.13;;
42670;SDS011;28283;55.426;37.756;2022-10-13T07:02:56;26.47;;;18.53;;
42670;SDS011;28283;55.426;37.756;2022-10-13T07:07:57;24.10;;;17.80;;
42670;SDS011;28283;55.426;37.756;2022-10-13T07:12:58;20.40;;;14.00;;
42670;SDS011;28283;55.426;37.756;2022-10-13T07:17:58;16.67;;;7.17;;
42670;SDS011;28283;55.426;37.756;2022-10-13T07:22:59;8.27;;;5.70;;
42670;SDS011;28283;55.426;37.756;2022-10-13T07:28:00;6.55;;;3.28;;
42670;SDS011;28283;55.426;37.756;2022-10-13T07:33:00;7.47;;;2.27;;
42670;SDS011;28283;55.426;37.756;2022-10-13T07:38:02;13.88;;;5.38;;
42670;SDS011;28283;55.426;37.756;2022-10-13T07:43:02;11.87;;;3.23;;
42670;SDS011;28283;55.426;37.756;2022-10-13T07:48:03;7.38;;;4.32;;
42670;SDS011;28283;55.426;37.756;2022-10-13T07:53:04;8.60;;;5.87;;
42670;SDS011;28283;55.426;37.756;2022-10-13T07:58:05;8.63;;;5.10;;
42670;SDS011;28283;55.426;37.756;2022-10-13T08:03:05;7.33;;;4.37;;
42670;SDS011;28283;55.426;37.756;2022-10-13T08:08:06;9.35;;;5.07;;
42670;SDS011;28283;55.426;37.756;2022-10-13T08:13:08;8.20;;;4.63;;
42670;SDS011;28283;55.426;37.756;2022-10-13T08:18:10;2.63;;;2.28;;
42670;SDS011;28283;55.426;37.756;2022-10-13T08:23:12;8.82;;;5.57;;
42670;SDS011;28283;55.426;37.756;2022-10-13T08:28:17;7.75;;;3.95;;
42670;SDS011;28283;55.426;37.756;2022-10-13T08:33:19;9.88;;;6.68;;
42670;SDS011;28283;55.426;37.756;2022-10-13T08:38:23;13.15;;;6.55;;
42670;SDS011;28283;55.426;37.756;2022-10-13T08:43:24;8.90;;;4.60;;
42670;SDS011;28283;55.426;37.756;2022-10-13T08:48:32;9.18;;;5.95;;
42670;SDS011;28283;55.426;37.756;2022-10-13T08:53:40;7.85;;;4.88;;
42670;SDS011;28283;55.426;37.756;2022-10-13T08:58:42;6.35;;;4.47;;
42670;SDS011;28283;55.426;37.756;2022-10-13T09:03:50;8.95;;;4.30;;
42670;SDS011;28283;55.426;37.756;2022-10-13T09:09:06;10.43;;;5.97;;
42670;SDS011;28283;55.426;37.756;2022-10-13T09:14:13;6.95;;;3.22;;
42670;SDS011;28283;55.426;37.756;2022-10-13T09:19:29;4.20;;;2.92;;
42670;SDS011;28283;55.426;37.756;2022-10-13T09:24:37;3.47;;;3.00;;
42670;SDS011;28283;55.426;37.756;2022-10-13T09:29:38;7.27;;;4.77;;
42670;SDS011;28283;55.426;37.756;2022-10-13T09:34:40;15.13;;;4.82;;
42670;SDS011;28283;55.426;37.756;2022-10-13T09:39:41;6.82;;;4.93;;
42670;SDS011;28283;55.426;37.756;2022-10-13T09:44:42;16.73;;;3.20;;
42670;SDS011;28283;55.426;37.756;2022-10-13T09:49:43;2.03;;;1.83;;
42670;SDS011;28283;55.426;37.756;2022-10-13T09:59:50;3.83;;;2.47;;
42670;SDS011;28283;55.426;37.756;2022-10-13T10:04:57;9.48;;;3.88;;
42670;SDS011;28283;55.426;37.756;2022-10-13T10:10:05;4.70;;;2.40;;
42670;SDS011;28283;55.426;37.756;2022-10-13T10:15:16;2.60;;;1.13;;
42670;SDS011;28283;55.426;37.756;2022-10-13T10:30:26;1.85;;;1.10;;
42670;SDS011;28283;55.426;37.756;2022-10-13T10:45:57;3.67;;;1.02;;
42670;SDS011;28283;55.426;37.756;2022-10-13T10:50:59;2.05;;;1.33;;
42670;SDS011;28283;55.426;37.756;2022-10-13T11:06:34;1.90;;;1.38;;
42670;SDS011;28283;55.426;37.756;2022-10-13T11:11:37;4.03;;;1.23;;
42670;SDS011;28283;55.426;37.756;2022-10-13T11:32:51;1.33;;;1.23;;
42670;SDS011;28283;55.426;37.756;2022-10-13T11:53:40;5.07;;;3.45;;
42670;SDS011;28283;55.426;37.756;2022-10-13T11:58:52;2.70;;;1.70;;
42670;SDS011;28283;55.426;37.756;2022-10-13T12:03:53;7.10;;;2.43;;
42670;SDS011;28283;55.426;37.756;2022-10-13T12:08:54;3.65;;;1.60;;
42670;SDS011;28283;55.426;37.756;2022-10-13T12:13:55;3.45;;;1.55;;
42670;SDS011;28283;55.426;37.756;2022-10-13T12:19:07;1.13;;;0.85;;
42670;SDS011;28283;55.426;37.756;2022-10-13T12:24:11;2.70;;;1.80;;
42670;SDS011;28283;55.426;37.756;2022-10-13T12:29:12;1.48;;;0.70;;
42670;SDS011;28283;55.426;37.756;2022-10-13T12:34:19;2.00;;;1.02;;
42670;SDS011;28283;55.426;37.756;2022-10-13T12:39:22;2.25;;;1.00;;
42670;SDS011;28283;55.426;37.756;2022-10-13T12:44:26;6.25;;;1.20;;
42670;SDS011;28283;55.426;37.756;2022-10-13T12:49:29;4.78;;;0.77;;
42670;SDS011;28283;55.426;37.756;2022-10-13T12:54:32;7.03;;;2.90;;
42670;SDS011;28283;55.426;37.756;2022-10-13T12:59:37;1.83;;;0.88;;
42670;SDS011;28283;55.426;37.756;2022-10-13T13:04:41;1.98;;;1.50;;
42670;SDS011;28283;55.426;37.756;2022-10-13T13:09:57;1.30;;;0.75;;
42670;SDS011;28283;55.426;37.756;2022-10-13T13:15:32;1.95;;;0.75;;
42670;SDS011;28283;55.426;37.756;2022-10-13T13:20:34;2.15;;;0.80;;
42670;SDS011;28283;55.426;37.756;2022-10-13T13:25:37;2.10;;;1.17;;
42670;SDS011;28283;55.426;37.756;2022-10-13T13:30:37;2.00;;;1.10;;
42670;SDS011;28283;55.426;37.756;2022-10-13T13:35:38;1.30;;;0.60;;
42670;SDS011;28283;55.426;37.756;2022-10-13T13:40:39;7.32;;;0.63;;
42670;SDS011;28283;55.426;37.756;2022-10-13T13:45:40;3.30;;;1.38;;
42670;SDS011;28283;55.426;37.756;2022-10-13T13:50:40;2.35;;;1.45;;
42670;SDS011;28283;55.426;37.756;2022-10-13T13:55:41;4.53;;;1.53;;
42670;SDS011;28283;55.426;37.756;2022-10-13T14:00:43;4.00;;;2.05;;
42670;SDS011;28283;55.426;37.756;2022-10-13T14:05:44;1.63;;;0.93;;
42670;SDS011;28283;55.426;37.756;2022-10-13T14:10:45;2.10;;;1.20;;
42670;SDS011;28283;55.426;37.756;2022-10-13T14:15:54;3.47;;;1.33;;
42670;SDS011;28283;55.426;37.756;2022-10-13T14:20:56;4.43;;;1.38;;
42670;SDS011;28283;55.426;37.756;2022-10-13T14:25:57;2.72;;;1.85;;
42670;SDS011;28283;55.426;37.756;2022-10-13T14:30:58;4.07;;;1.58;;
42670;SDS011;28283;55.426;37.756;2022-10-13T14:36:00;10.83;;;3.00;;
42670;SDS011;28283;55.426;37.756;2022-10-13T14:41:02;3.33;;;1.60;;
42670;SDS011;28283;55.426;37.756;2022-10-13T14:46:05;5.28;;;1.98;;
42670;SDS011;28283;55.426;37.756;2022-10-13T14:51:06;6.57;;;3.20;;
42670;SDS011;28283;55.426;37.756;2022-10-13T14:56:20;4.15;;;2.20;;
42670;SDS011;28283;55.426;37.756;2022-10-13T15:01:22;6.45;;;2.85;;
42670;SDS011;28283;55.426;37.756;2022-10-13T15:06:23;4.40;;;2.33;;
42670;SDS011;28283;55.426;37.756;2022-10-13T15:11:24;9.68;;;3.47;;
42670;SDS011;28283;55.426;37.756;2022-10-13T15:21:28;7.15;;;3.90;;
42670;SDS011;28283;55.426;37.756;2022-10-13T15:26:32;11.00;;;4.32;;
42670;SDS011;28283;55.426;37.756;2022-10-13T15:31:33;11.00;;;4.72;;
42670;SDS011;28283;55.426;37.756;2022-10-13T15:36:33;16.63;;;6.47;;
42670;SDS011;28283;55.426;37.756;2022-10-13T15:41:34;14.57;;;5.23;;
42670;SDS011;28283;55.426;37.756;2022-10-13T15:46:35;12.73;;;5.77;;
42670;SDS011;28283;55.426;37.756;2022-10-13T15:51:35;14.80;;;6.87;;
42670;SDS011;28283;55.426;37.756;2022-10-13T15:56:36;17.00;;;10.27;;
42670;SDS011;28283;55.426;37.756;2022-10-13T16:01:37;15.37;;;9.23;;
42670;SDS011;28283;55.426;37.756;2022-10-13T16:06:38;14.57;;;8.20;;
42670;SDS011;28283;55.426;37.756;2022-10-13T16:11:38;5.27;;;3.60;;
42670;SDS011;28283;55.426;37.756;2022-10-13T16:16:39;18.13;;;4.38;;
42670;SDS011;28283;55.426;37.756;2022-10-13T16:21:40;3.23;;;2.67;;
42670;SDS011;28283;55.426;37.756;2022-10-13T16:26:41;2.90;;;1.93;;
42670;SDS011;28283;55.426;37.756;2022-10-13T16:31:41;7.70;;;5.30;;
42670;SDS011;28283;55.426;37.756;2022-10-13T16:36:42;5.00;;;3.23;;
42670;SDS011;28283;55.426;37.756;2022-10-13T16:41:43;8.03;;;3.50;;
42670;SDS011;28283;55.426;37.756;2022-10-13T16:46:44;10.27;;;3.28;;
42670;SDS011;28283;55.426;37.756;2022-10-13T16:51:44;15.20;;;4.47;;
42670;SDS011;28283;55.426;37.756;2022-10-13T16:56:45;12.80;;;5.10;;
42670;SDS011;28283;55.426;37.756;2022-10-13T17:01:46;9.73;;;4.13;;
42670;SDS011;28283;55.426;37.756;2022-10-13T17:06:47;9.45;;;4.15;;
42670;SDS011;28283;55.426;37.756;2022-10-13T17:11:48;10.10;;;4.03;;
42670;SDS011;28283;55.426;37.756;2022-10-13T17:21:50;12.50;;;4.05;;
42670;SDS011;28283;55.426;37.756;2022-10-13T17:26:51;9.30;;;4.37;;
42670;SDS011;28283;55.426;37.756;2022-10-13T17:31:52;14.47;;;7.10;;
42670;SDS011;28283;55.426;37.756;2022-10-13T17:36:52;15.77;;;6.55;;
42670;SDS011;28283;55.426;37.756;2022-10-13T17:41:53;13.00;;;6.20;;
42670;SDS011;28283;55.426;37.756;2022-10-13T17:46:54;9.53;;;5.03;;
42670;SDS011;28283;55.426;37.756;2022-10-13T17:51:55;12.13;;;5.30;;
42670;SDS011;28283;55.426;37.756;2022-10-13T17:56:55;4.67;;;4.13;;
42670;SDS011;28283;55.426;37.756;2022-10-13T18:01:56;12.55;;;6.68;;
42670;SDS011;28283;55.426;37.756;2022-10-13T18:06:57;7.37;;;4.90;;
42670;SDS011;28283;55.426;37.756;2022-10-13T18:11:58;7.37;;;4.37;;
42670;SDS011;28283;55.426;37.756;2022-10-13T18:16:58;7.77;;;4.40;;
42670;SDS011;28283;55.426;37.756;2022-10-13T18:21:59;7.77;;;4.30;;
42670;SDS011;28283;55.426;37.756;2022-10-13T18:27:00;5.13;;;3.97;;
42670;SDS011;28283;55.426;37.756;2022-10-13T18:32:00;8.40;;;4.87;;
42670;SDS011;28283;55.426;37.756;2022-10-13T18:37:01;9.87;;;4.73;;
42670;SDS011;28283;55.426;37.756;2022-10-13T18:42:04;10.30;;;5.47;;
42670;SDS011;28283;55.426;37.756;2022-10-13T18:47:05;9.93;;;5.23;;
42670;SDS011;28283;55.426;37.756;2022-10-13T18:52:06;9.77;;;5.70;;
42670;SDS011;28283;55.426;37.756;2022-10-13T18:57:07;10.73;;;5.30;;
42670;SDS011;28283;55.426;37.756;2022-10-13T19:02:08;11.23;;;5.30;;
42670;SDS011;28283;55.426;37.756;2022-10-13T19:07:11;10.70;;;5.22;;
42670;SDS011;28283;55.426;37.756;2022-10-13T19:12:12;15.10;;;5.67;;
42670;SDS011;28283;55.426;37.756;2022-10-13T19:17:13;10.68;;;5.72;;
42670;SDS011;28283;55.426;37.756;2022-10-13T19:22:13;11.83;;;5.37;;
42670;SDS011;28283;55.426;37.756;2022-10-13T19:27:14;8.15;;;4.72;;
42670;SDS011;28283;55.426;37.756;2022-10-13T19:32:15;16.47;;;7.03;;
42670;SDS011;28283;55.426;37.756;2022-10-13T19:37:15;14.70;;;6.63;;
42670;SDS011;28283;55.426;37.756;2022-10-13T19:42:16;8.80;;;5.20;;
42670;SDS011;28283;55.426;37.756;2022-10-13T19:47:17;13.07;;;5.63;;
42670;SDS011;28283;55.426;37.756;2022-10-13T19:52:17;19.80;;;6.43;;
42670;SDS011;28283;55.426;37.756;2022-10-13T19:57:18;11.27;;;5.30;;
42670;SDS011;28283;55.426;37.756;2022-10-13T20:02:21;14.70;;;6.05;;
42670;SDS011;28283;55.426;37.756;2022-10-13T20:07:21;17.60;;;6.60;;
42670;SDS011;28283;55.426;37.756;2022-10-13T20:12:22;6.82;;;4.57;;
42670;SDS011;28283;55.426;37.756;2022-10-13T20:17:23;10.35;;;4.60;;
42670;SDS011;28283;55.426;37.756;2022-10-13T20:22:24;13.40;;;4.90;;
42670;SDS011;28283;55.426;37.756;2022-10-13T20:27:25;9.13;;;4.40;;
42670;SDS011;28283;55.426;37.756;2022-10-13T20:32:25;12.47;;;4.37;;
42670;SDS011;28283;55.426;37.756;2022-10-13T20:37:26;14.87;;;4.80;;
42670;SDS011;28283;55.426;37.756;2022-10-13T20:47:28;16.42;;;9.05;;
42670;SDS011;28283;55.426;37.756;2022-10-13T20:52:28;14.17;;;7.83;;
42670;SDS011;28283;55.426;37.756;2022-10-13T20:57:29;11.87;;;7.77;;
42670;SDS011;28283;55.426;37.756;2022-10-13T21:02:30;13.52;;;7.28;;
42670;SDS011;28283;55.426;37.756;2022-10-13T21:07:31;14.35;;;7.70;;
42670;SDS011;28283;55.426;37.756;2022-10-13T21:12:31;17.13;;;6.97;;
42670;SDS011;28283;55.426;37.756;2022-10-13T21:17:32;12.77;;;7.05;;
42670;SDS011;28283;55.426;37.756;2022-10-13T21:22:33;16.57;;;5.80;;
42670;SDS011;28283;55.426;37.756;2022-10-13T21:27:33;12.27;;;5.70;;
42670;SDS011;28283;55.426;37.756;2022-10-13T21:32:34;11.40;;;6.17;;
42670;SDS011;28283;55.426;37.756;2022-10-13T21:37:35;14.63;;;6.03;;
42670;SDS011;28283;55.426;37.756;2022-10-13T21:42:40;14.85;;;6.05;;
42670;SDS011;28283;55.426;37.756;2022-10-13T21:47:40;15.52;;;5.88;;
42670;SDS011;28283;55.426;37.756;2022-10-13T21:52:41;8.43;;;5.23;;
42670;SDS011;28283;55.426;37.756;2022-10-13T21:57:42;11.77;;;6.47;;
42670;SDS011;28283;55.426;37.756;2022-10-13T22:02:43;11.98;;;5.45;;
42670;SDS011;28283;55.426;37.756;2022-10-13T22:07:44;15.32;;;5.75;;
42670;SDS011;28283;55.426;37.756;2022-10-13T22:12:44;13.77;;;6.53;;
42670;SDS011;28283;55.426;37.756;2022-10-13T22:17:45;16.37;;;6.23;;
42670;SDS011;28283;55.426;37.756;2022-10-13T22:22:46;14.70;;;7.10;;
42670;SDS011;28283;55.426;37.756;2022-10-13T22:27:47;12.73;;;5.63;;
42670;SDS011;28283;55.426;37.756;2022-10-13T22:32:47;10.40;;;6.72;;
42670;SDS011;28283;55.426;37.756;2022-10-13T22:37:48;11.63;;;6.30;;
42670;SDS011;28283;55.426;37.756;2022-10-13T22:42:49;13.67;;;5.90;;
42670;SDS011;28283;55.426;37.756;2022-10-13T22:47:50;13.00;;;7.30;;
42670;SDS011;28283;55.426;37.756;2022-10-13T22:52:50;15.30;;;7.70;;
42670;SDS011;28283;55.426;37.756;2022-10-13T22:57:51;12.77;;;6.10;;
42670;SDS011;28283;55.426;37.756;2022-10-13T23:02:52;8.35;;;6.25;;
42670;SDS011;28283;55.426;37.756;2022-10-13T23:07:53;10.47;;;6.20;;
42670;SDS011;28283;55.426;37.756;2022-10-13T23:12:53;10.83;;;7.13;;
42670;SDS011;28283;55.426;37.756;2022-10-13T23:17:54;14.23;;;8.13;;
42670;SDS011;28283;55.426;37.756;2022-10-13T23:22:55;16.00;;;7.03;;
42670;SDS011;28283;55.426;37.756;2022-10-13T23:27:56;10.55;;;6.68;;
42670;SDS011;28283;55.426;37.756;2022-10-13T23:32:57;15.43;;;7.80;;
42670;SDS011;28283;55.426;37.756;2022-10-13T23:37:57;21.10;;;8.85;;
42670;SDS011;28283;55.426;37.756;2022-10-13T23:42:58;16.90;;;9.20;;
42670;SDS011;28283;55.426;37.756;2022-10-13T23:47:59;14.33;;;7.43;;
42670;SDS011;28283;55.426;37.756;2022-10-13T23:53:00;13.82;;;8.10;;
42670;SDS011;28283;55.426;37.756;2022-10-13T23:58:00;14.77;;;6.23;;
